Weather reports worldwide

Advertisment
Hellin, Spain (8355): temperature & dewpoint: 07.07.2020 07:00:00 - 13.07.2020 07:00:00 (CEST)Hellin, Spain (8355): wind speed & gusts: 07.07.2020 07:00:00 - 13.07.2020 07:00:00 (CEST)Hellin, Spain (8355): wind direction: 07.07.2020 07:00:00 - 13.07.2020 07:00:00 (CEST)Hellin, Spain (8355): reduced air pressure: 07.07.2020 07:00:00 - 13.07.2020 07:00:00 (CEST)Hellin, Spain (8355): precipitation: 07.07.2020 07:00:00 - 13.07.2020 07:00:00 (CEST)
Date & Time tt [°C] td [°C] ff [km/h] ff [kn] fx [km/h] fx [kn] dd ppp [hPa] rr [mm]
13.07.2020 07:00:00 18,2 16,7 9 5 12 7 SSW 1023,1 0,0
13.07.2020 06:00:00 18,3 16,1 5 3 8 4 SW 1022,9 0,0
13.07.2020 05:00:00 18,7 16,5 3 2 4 2 SW 1022,9 0,0
13.07.2020 04:00:00 18,8 17,1 0 0 5 3 SE 1023,6 0,0
13.07.2020 03:00:00 19,5 17,3 2 1 7 4 SSW 1023,7 0,0
13.07.2020 02:00:00 20,4 17,6 1 1 11 6 NNW 1023,6 -
13.07.2020 01:00:00 21,0 17,4 6 4 16 8 NNE 1024,0 0,0
13.07.2020 00:00:00 21,9 17,1 7 4 16 9 NNE 1023,4 0,0
12.07.2020 23:00:00 22,3 17,5 4 2 14 8 NE 1022,4 0,0
12.07.2020 22:00:00 23,8 19,3 5 3 24 13 W 1021,5 0,0
12.07.2020 21:00:00 24,4 19,3 16 8 34 18 W 1020,8 0,0
12.07.2020 20:00:00 24,7 19,8 14 8 36 19 WSW 1020,9 -
12.07.2020 19:00:00 27,2 16,5 21 12 37 20 SSW 1019,5 0,0
12.07.2020 18:00:00 28,4 14,6 15 8 30 16 SSE 1019,4 0,0
12.07.2020 17:00:00 28,1 14,3 15 8 27 14 SSE 1020,1 0,0
12.07.2020 16:00:00 28,2 15,5 12 6 24 13 S 1019,8 0,0
12.07.2020 15:00:00 28,0 14,2 13 7 31 17 SW 1020,4 0,0
12.07.2020 14:00:00 28,7 14,9 16 9 38 20 SW 1019,9 -
12.07.2020 13:00:00 28,4 15,3 19 10 35 19 SW 1020,3 0,0
12.07.2020 12:00:00 26,7 16,0 13 7 26 14 SW 1020,4 0,0
12.07.2020 11:00:00 25,6 16,7 10 5 23 13 SW 1020,5 0,0
12.07.2020 10:00:00 24,3 16,6 10 6 19 10 WSW 1020,9 0,0
12.07.2020 09:00:00 21,8 19,0 3 1 10 5 W 1021,3 0,0
12.07.2020 08:00:00 20,7 17,9 3 2 24 13 W 1022,0 -
12.07.2020 07:00:00 20,6 16,8 10 5 40 22 W 1021,7 0,0
12.07.2020 06:00:00 20,3 15,7 4 2 12 7 SE 1022,2 0,0
12.07.2020 05:00:00 20,1 15,5 3 1 6 3 SSE 1022,1 0,0
12.07.2020 04:00:00 19,1 14,5 2 1 9 5 WNW 1023,3 0,0
12.07.2020 03:00:00 19,5 14,3 2 1 10 5 WNW 1022,5 0,0
12.07.2020 02:00:00 20,6 13,8 4 2 12 7 WSW 1022,6 -
12.07.2020 01:00:00 22,0 13,9 6 4 17 9 SW 1022,2 0,0
12.07.2020 00:00:00 22,6 14,1 7 4 16 9 SW 1022,2 0,0
11.07.2020 23:00:00 23,4 13,9 8 4 22 12 SW 1021,6 0,0
11.07.2020 22:00:00 24,5 13,1 13 7 26 14 SSW 1020,5 0,0
11.07.2020 21:00:00 26,4 12,4 16 9 30 16 SSW 1019,5 0,0
11.07.2020 20:00:00 28,7 13,4 16 9 30 16 SW 1018,6 -
11.07.2020 19:00:00 30,7 13,9 15 8 32 17 SW 1017,8 0,0
11.07.2020 18:00:00 32,3 14,9 10 6 31 17 SSW 1017,5 0,0
11.07.2020 17:00:00 33,0 14,6 16 9 28 15 SW 1017,5 0,0
11.07.2020 16:00:00 32,7 14,8 9 5 28 15 SSW 1017,5 0,0
11.07.2020 15:00:00 31,9 15,0 9 5 26 14 SW 1018,1 0,0
11.07.2020 14:00:00 29,8 14,3 6 3 29 15 SSE 1019,2 -
11.07.2020 13:00:00 29,7 13,9 8 4 22 12 S 1019,4 0,0
11.07.2020 12:00:00 28,4 13,9 6 4 19 10 S 1019,8 0,0
11.07.2020 11:00:00 26,3 14,7 6 3 18 10 SSE 1020,4 0,0
11.07.2020 10:00:00 24,2 15,7 4 2 13 7 ESE 1020,7 0,0
11.07.2020 09:00:00 22,5 15,1 5 3 9 5 E 1020,8 0,0
11.07.2020 08:00:00 20,4 16,0 6 3 9 5 ENE 1020,9 -
11.07.2020 07:00:00 18,0 15,8 1 0 4 2 ENE 1021,0 0,0
11.07.2020 06:00:00 19,3 16,0 0 0 10 5 NW 1019,9 0,0
11.07.2020 05:00:00 20,0 17,2 6 3 12 7 ENE 1019,4 0,0
11.07.2020 04:00:00 20,5 17,5 6 3 10 6 ENE 1019,3 0,0
11.07.2020 03:00:00 21,2 17,6 4 2 6 4 E 1019,6 0,0
11.07.2020 02:00:00 21,8 17,8 0 0 4 2 N 1019,5 -
11.07.2020 01:00:00 22,6 17,7 0 0 3 2 SE 1019,5 0,0
11.07.2020 00:00:00 22,7 17,6 1 0 15 8 SSW 1019,2 0,0
10.07.2020 23:00:00 23,7 17,5 8 5 17 9 SW 1018,9 0,0
10.07.2020 22:00:00 24,8 16,7 11 6 20 11 SW 1017,4 0,0
10.07.2020 21:00:00 27,0 15,7 12 6 21 12 SW 1016,3 0,0
10.07.2020 20:00:00 29,9 14,8 9 5 27 14 SSW 1015,0 -
10.07.2020 19:00:00 31,6 12,8 14 8 26 14 SW 1014,0 0,0
10.07.2020 18:00:00 32,8 12,4 10 6 27 14 SSW 1013,8 0,0
10.07.2020 17:00:00 33,3 12,3 9 5 24 13 S 1013,8 0,0
10.07.2020 16:00:00 32,4 12,1 10 6 26 14 SE 1014,8 0,0
10.07.2020 15:00:00 31,8 13,1 1 1 21 12 ENE 1015,4 0,0
10.07.2020 14:00:00 30,6 13,0 7 4 23 12 S 1016,4 -
10.07.2020 13:00:00 29,5 12,8 5 3 16 9 SE 1016,9 0,0
10.07.2020 12:00:00 27,4 13,0 5 3 16 9 SE 1017,7 0,0
10.07.2020 11:00:00 25,6 13,8 5 3 12 7 ESE 1018,2 0,0
10.07.2020 10:00:00 24,1 15,1 4 2 11 6 S 1018,8 0,0
10.07.2020 09:00:00 21,6 15,7 5 3 14 7 NE 1019,2 0,0
10.07.2020 08:00:00 18,7 15,0 9 5 16 8 NE 1019,9 -
10.07.2020 07:00:00 18,3 15,0 8 4 14 7 NE 1019,8 0,0
10.07.2020 06:00:00 18,7 15,3 5 3 11 6 E 1019,7 0,0
10.07.2020 05:00:00 18,8 14,9 5 3 13 7 ENE 1019,9 0,0
10.07.2020 04:00:00 19,7 14,0 9 5 15 8 NE 1020,0 0,0
10.07.2020 03:00:00 20,5 14,4 3 2 9 5 ENE 1020,0 0,0
10.07.2020 02:00:00 20,5 13,9 0 0 3 2 NNW 1020,5 -
10.07.2020 01:00:00 21,1 13,8 0 0 8 4 E 1020,7 0,0
10.07.2020 00:00:00 22,3 12,8 3 1 14 8 W 1020,4 0,0
09.07.2020 23:00:00 23,5 12,7 5 3 19 10 SW 1020,1 0,0
09.07.2020 22:00:00 24,4 12,0 4 2 14 7 W 1020,0 0,0
09.07.2020 21:00:00 25,8 11,9 7 4 22 12 SW 1018,5 0,0
09.07.2020 20:00:00 26,8 10,5 12 7 31 17 SW 1016,9 -
09.07.2020 19:00:00 29,0 11,6 18 10 32 17 SW 1015,6 0,0
09.07.2020 18:00:00 30,8 11,7 12 7 32 17 SSW 1015,7 0,0
09.07.2020 17:00:00 31,0 12,8 16 9 29 16 SW 1016,4 0,0
09.07.2020 16:00:00 31,5 12,8 10 5 24 13 WSW 1016,6 0,0
09.07.2020 15:00:00 31,2 13,5 9 5 30 16 SSW 1017,1 0,0
09.07.2020 14:00:00 30,0 14,1 7 4 26 14 S 1018,2 -
09.07.2020 13:00:00 28,6 14,0 5 3 23 12 SE 1018,7 0,0
09.07.2020 12:00:00 27,3 14,7 6 3 18 10 SE 1019,4 0,0
09.07.2020 11:00:00 26,2 13,9 6 3 13 7 SE 1020,0 0,0
09.07.2020 10:00:00 24,8 15,4 1 1 9 5 SE 1020,4 0,0
09.07.2020 09:00:00 22,5 16,7 2 1 9 5 NNE 1020,5 0,0
09.07.2020 08:00:00 19,6 17,4 5 3 16 9 ENE 1020,7 -
09.07.2020 07:00:00 18,8 17,1 8 4 16 9 NE 1020,5 0,0
09.07.2020 06:00:00 18,7 17,1 5 3 14 7 NE 1020,8 0,1
09.07.2020 05:00:00 19,2 17,4 2 1 11 6 ESE 1020,9 0,0
09.07.2020 04:00:00 19,3 16,6 4 2 9 5 WSW 1021,4 0,0
09.07.2020 03:00:00 19,5 16,3 4 2 19 11 WNW 1020,9 0,0
09.07.2020 02:00:00 20,6 17,6 3 2 13 7 WNW 1020,7 -
09.07.2020 01:00:00 21,8 16,7 5 3 20 11 WSW 1020,8 0,0
09.07.2020 00:00:00 22,4 16,0 10 6 16 9 WSW 1021,5 0,0
08.07.2020 23:00:00 23,3 15,3 11 6 31 17 S 1019,5 0,0
08.07.2020 22:00:00 24,5 13,7 2 1 16 9 ESE 1019,9 0,0
08.07.2020 21:00:00 25,1 13,7 10 5 22 12 S 1018,0 0,0
08.07.2020 20:00:00 25,7 14,5 12 6 26 14 SW 1018,1 -
08.07.2020 19:00:00 25,1 15,2 8 4 30 16 WNW 1018,6 0,0
08.07.2020 18:00:00 24,7 15,6 16 9 33 18 SE 1017,9 0,5
08.07.2020 17:00:00 26,7 13,8 2 1 23 13 W 1021,3 3,3
08.07.2020 16:00:00 29,2 12,6 11 6 26 14 SW 1018,2 0,0
08.07.2020 15:00:00 31,1 13,0 13 7 29 16 SSW 1017,6 0,0
08.07.2020 14:00:00 29,8 13,2 9 5 29 16 S 1018,5 -
08.07.2020 13:00:00 27,5 13,5 11 6 27 14 SSE 1018,9 0,0
08.07.2020 12:00:00 27,2 13,9 11 6 23 12 SW 1019,9 0,0
08.07.2020 11:00:00 25,5 15,5 9 5 17 9 SSW 1019,9 0,0
08.07.2020 10:00:00 23,5 15,0 6 3 12 7 SE 1020,4 0,0
08.07.2020 09:00:00 21,9 15,7 1 1 4 2 S 1021,3 0,0
08.07.2020 08:00:00 19,7 16,7 3 1 6 4 NW 1021,5 -
08.07.2020 07:00:00 19,0 13,4 0 0 2 1 N 1020,9 0,0
08.07.2020 06:00:00 20,1 11,8 0 0 6 3 S 1020,5 0,0
08.07.2020 05:00:00 20,5 10,6 1 0 9 5 SW 1020,5 0,0
08.07.2020 04:00:00 21,0 11,0 3 2 10 6 SW 1020,2 0,0
08.07.2020 03:00:00 22,0 11,4 4 2 12 6 SW 1020,0 0,0
08.07.2020 02:00:00 22,7 12,6 6 4 11 6 SW 1020,1 -
08.07.2020 01:00:00 24,1 13,4 6 4 10 5 WSW 1019,9 0,0
08.07.2020 00:00:00 24,3 13,0 2 1 6 3 WNW 1019,3 0,0
07.07.2020 23:00:00 26,7 13,1 3 1 10 6 SSW 1018,4 0,0
07.07.2020 22:00:00 28,2 13,0 4 2 14 8 S 1017,4 0,0
07.07.2020 21:00:00 30,5 12,8 4 2 21 11 S 1016,2 0,0
07.07.2020 20:00:00 32,7 13,4 8 4 24 13 SSW 1015,3 -
07.07.2020 19:00:00 34,5 12,7 16 8 31 17 SW 1014,4 0,0
07.07.2020 18:00:00 36,6 12,1 13 7 27 15 SSW 1014,0 0,0
07.07.2020 17:00:00 36,6 12,1 12 7 24 13 SW 1014,4 0,0
07.07.2020 16:00:00 36,6 12,7 11 6 23 12 SW 1014,6 0,0
07.07.2020 15:00:00 35,6 12,5 10 5 21 11 SW 1015,2 0,0
07.07.2020 14:00:00 33,7 12,6 6 3 17 9 SSW 1016,4 -
07.07.2020 13:00:00 31,8 12,5 6 3 14 8 SSW 1017,5 0,0
07.07.2020 12:00:00 29,4 11,0 3 1 9 5 SSE 1018,5 0,0
07.07.2020 11:00:00 26,7 10,4 3 1 10 5 E 1019,2 0,0
07.07.2020 10:00:00 25,4 10,8 1 1 8 5 S 1019,5 0,0
07.07.2020 09:00:00 23,5 10,5 1 1 5 3 SW 1020,1 0,0
07.07.2020 08:00:00 20,9 9,8 1 0 5 3 NE 1020,3 -
07.07.2020 07:00:00 19,3 8,9 4 2 6 4 NE 1020,7 0,0

tt = temperature
td = dewpoint
ff = wind speed
fx = gusts
dd = wind direction
ppp = reduced air pressure
rr = precipitation

Next stations